Terminal Aerodrome Forecast
Issued by NWS

Home | Current Version | Previous Version | Text Only | Print | Product List | Glossary On
Versions: 1 2 3 4 5 6 7 8 9 10 11 12 13 14 15 16 17 18 19 20 21 22 23 24 25 26 27 28 29 30 31 32 33 34 35 36 37 38 39 40 41 42 43 44 45 46 47 48 49 50
000
FTUS42 KRAH 201140
TAFINT
TAF
KINT 201140Z 2012/2112 22009KT P6SM SCT012 BKN250
      TEMPO 2012/2014 BKN010
     FM201430 24012G19KT P6SM SCT040 BKN250
     FM201600 24014G22KT P6SM VCTS SCT040CB BKN250
      TEMPO 2017/2021 25030G45KT 1 1/2SM +TSRAGR SCT025 BKN045CB
      OVC090CB
     FM202300 26011KT P6SM SCT045 BKN120=

USA.gov is the U.S. government's official web portal to all federal, state and local government web resources and services.